Seguin, TX

10:06 PM CDT on August 27, 2015 (GMT -0500)
Muehlsville | | Change Station
CLOSE
Current Station
Personal Weather Station
Location: Seguin, TX
Elevation: 565 ft
Nearby Weather Stations

Elev 565 ft 29.55 °N, 98.04 °W | Updated 1 second ago

Partly Cloudy
Partly Cloudy
82.3 °F
Feels Like 83 °F
N
6.9
Wind Variable Wind from ESE
Gusts 6.9 mph

Today
High -- | Low -- °F
--% Chance of Precip.
Yesterday
High -- | Low -- °F
Precip. -- in
7:06 AM 8:00 PM
Waxing Gibbous, 96% visible
Pressure 29.96 in
Visibility 10.0 miles
Clouds Clear
Heat Index 83 °F
Dew Point 63 °F
Humidity 52%
Rainfall 0.00 in
Snow Depth Not available.
UV 0 out of 12
Pollen 7.50 out of 12
Air Quality Not available.
Flu Activity Not available.
METAR KBAZ 280251Z AUTO 13008KT 10SM CLR 28/16 A2999 RMK AO2 SLP146 T02830156 53012
Pressure 29.96 in
Visibility 10.0 miles
Clouds Clear
Heat Index 83 °F
Dew Point 63 °F
Humidity 52%
Rainfall 0.00 in
Snow Depth Not available.
UV 0 out of 12
Pollen 7.50 out of 12
Air Quality Not available.
Flu Activity Not available.
METAR KBAZ 280251Z AUTO 13008KT 10SM CLR 28/16 A2999 RMK AO2 SLP146 T02830156 53012

10-Day Weather Forecast

×

Almanac

Astronomy

Aug. 27, 2015 Rise Set
Actual Time
Civil Twilight
Nautical Twilight
Astronomical Twilight
Moon
Length of Visible Light
Length of Day
Tomorrow will be .
, % of the Moon is Illuminated

Today's Extremes

State Highs State Lows

Community

WunderPhotos

Upload Photos

1,850,310 photos uploaded!

WunderBlogs® & News

Nearby

Air Quality

  Air Quality AQ Index Pollutant
Not available.

Snow Depth

Station Depth Elevation

Earthquake Activity

City Distance Mag. Time & Date
Minimum magnitude displayed is 2.5.

Coastal Water Temperatures

Place Temperature

Stations

Nearby Weather Stations

Station Location Temp. Windchill Dew Point Humidity Wind Precip. Elev Updated Type